Time;durP1;ratioP1;P1;durP2;ratioP2;P2;SDS_P1;SDS_P2;PMS_P1;PMS_P2;Temp;Humidity;BMP_temperature;BMP_pressure;BME280_temperature;BME280_humidity;BME280_pressure;Samples;Min_cycle;Max_cycle;Signal;HPM_P1;HPM_P2
2022/08/21 00:00:38;;;;;;;17.45;6.43;;;;;;;14.38;88.68;101553.56;5075928;28;20024;-75
2022/08/21 00:03:06;;;;;;;17.08;6.63;;;;;;;14.32;89.19;101557.63;5076180;28;20086;-75
2022/08/21 00:05:35;;;;;;;16.33;6.55;;;;;;;14.29;89.18;101547.03;5075514;28;20016;-75
2022/08/21 00:08:00;;;;;;;17.73;7.55;;;;;;;14.28;88.92;101554.28;5074769;28;20028;-75
2022/08/21 00:10:26;;;;;;;18.30;7.80;;;;;;;14.24;88.95;101547.41;5075980;28;20085;-75
2022/08/21 00:12:51;;;;;;;18.58;7.57;;;;;;;14.22;89.27;101551.22;5076112;28;20586;-75
2022/08/21 00:15:22;;;;;;;22.38;8.02;;;;;;;14.16;89.41;101553.41;5074664;28;20020;-75
2022/08/21 00:17:48;;;;;;;20.08;8.70;;;;;;;14.15;89.58;101538.16;5076273;28;20477;-75
2022/08/21 00:20:15;;;;;;;18.30;7.25;;;;;;;14.12;89.62;101548.38;5076278;28;20032;-75
2022/08/21 00:22:42;;;;;;;18.95;7.40;;;;;;;14.10;88.90;101543.06;5075993;28;20025;-75
2022/08/21 00:25:08;;;;;;;17.08;6.97;;;;;;;14.11;89.39;101542.06;5076116;28;20032;-75
2022/08/21 00:27:34;;;;;;;20.05;7.57;;;;;;;14.11;88.55;101533.97;5054478;28;20036;-75
2022/08/21 00:30:00;;;;;;;16.95;6.85;;;;;;;14.13;89.13;101548.25;5055496;28;20028;-75
2022/08/21 00:32:27;;;;;;;22.10;8.13;;;;;;;14.12;89.28;101530.28;5077195;28;20390;-75
2022/08/21 00:34:53;;;;;;;18.25;7.05;;;;;;;14.13;89.16;101536.59;5078820;28;20029;-75
2022/08/21 00:37:19;;;;;;;19.27;7.32;;;;;;;14.14;89.40;101533.75;5079996;28;20037;-75
2022/08/21 00:39:45;;;;;;;21.70;7.65;;;;;;;14.14;89.27;101531.06;5079052;28;20043;-75
2022/08/21 00:42:14;;;;;;;19.20;8.10;;;;;;;14.15;88.82;101526.50;5079982;28;20073;-75
2022/08/21 00:44:42;;;;;;;17.90;8.20;;;;;;;14.15;88.70;101523.78;5080331;28;20051;-75
2022/08/21 00:47:08;;;;;;;18.55;8.10;;;;;;;14.18;88.81;101526.25;5078977;28;20029;-75
2022/08/21 00:49:33;;;;;;;18.15;8.40;;;;;;;14.19;89.76;101527.09;5079858;28;20031;-75
2022/08/21 00:52:00;;;;;;;19.45;8.23;;;;;;;14.21;89.58;101520.59;5080689;28;20108;-75
2022/08/21 00:54:29;;;;;;;19.63;8.05;;;;;;;14.22;89.21;101522.34;5079680;28;20500;-75
2022/08/21 00:57:00;;;;;;;20.83;7.93;;;;;;;14.20;89.52;101532.38;5079833;28;20021;-75
2022/08/21 00:59:27;;;;;;;18.52;7.93;;;;;;;14.15;89.26;101524.66;5078474;28;20495;-75
2022/08/21 01:01:53;;;;;;;18.23;7.95;;;;;;;14.10;89.23;101536.78;5075697;28;20032;-74
2022/08/21 01:04:20;;;;;;;19.42;7.88;;;;;;;14.08;88.94;101531.50;5075135;28;20465;-74
2022/08/21 01:06:46;;;;;;;21.20;8.00;;;;;;;14.05;88.58;101530.91;5073980;28;20029;-74
2022/08/21 01:09:12;;;;;;;18.10;7.90;;;;;;;13.99;88.98;101527.66;5073910;28;20077;-74
2022/08/21 01:11:39;;;;;;;20.25;7.63;;;;;;;13.94;89.16;101529.88;5075035;28;20062;-74
2022/08/21 01:14:05;;;;;;;20.48;8.15;;;;;;;13.90;88.20;101528.38;5073812;28;20024;-74
2022/08/21 01:16:30;;;;;;;19.85;7.97;;;;;;;13.89;88.89;101528.50;5074757;28;20047;-75
2022/08/21 01:18:55;;;;;;;17.83;7.38;;;;;;;13.86;89.18;101528.75;5075039;28;20494;-75
2022/08/21 01:21:24;;;;;;;18.15;7.63;;;;;;;13.79;89.10;101531.03;5073638;28;20052;-75
2022/08/21 01:23:52;;;;;;;19.00;7.97;;;;;;;13.76;89.33;101524.06;5073561;28;20031;-75
2022/08/21 01:26:22;;;;;;;18.65;7.78;;;;;;;13.73;89.38;101520.69;5073524;28;20025;-75
2022/08/21 01:29:16;;;;;;;18.80;8.27;;;;;;;13.76;88.85;101515.06;5073571;28;20024;-75
2022/08/21 01:31:41;;;;;;;19.23;8.25;;;;;;;13.69;89.57;101513.81;5073136;28;20025;-75
2022/08/21 01:34:08;;;;;;;15.25;7.07;;;;;;;13.66;89.61;101514.94;5073365;28;20036;-75
2022/08/21 01:36:33;;;;;;;18.90;8.15;;;;;;;13.64;90.08;101516.88;5074820;28;20069;-75
2022/08/21 01:38:59;;;;;;;20.92;8.73;;;;;;;13.63;89.65;101520.53;5073375;28;20025;-75
2022/08/21 01:41:24;;;;;;;20.42;7.65;;;;;;;13.65;89.97;101524.00;5074337;28;20021;-75
2022/08/21 01:43:49;;;;;;;18.45;7.68;;;;;;;13.59;90.06;101522.63;5074233;28;20024;-75
2022/08/21 01:46:15;;;;;;;18.83;7.82;;;;;;;13.58;89.82;101523.59;5073245;28;20424;-75
2022/08/21 01:48:41;;;;;;;20.33;8.05;;;;;;;13.59;90.38;101524.47;5074438;28;20036;-75
2022/08/21 01:51:07;;;;;;;20.38;8.48;;;;;;;13.58;90.40;101522.72;5074264;28;20030;-75
2022/08/21 01:53:35;;;;;;;20.35;8.85;;;;;;;13.54;89.66;101519.38;5074478;28;20027;-75
2022/08/21 01:56:02;;;;;;;19.00;7.43;;;;;;;13.53;90.05;101520.38;5072912;28;20021;-75
2022/08/21 01:58:27;;;;;;;21.08;8.82;;;;;;;13.52;89.96;101518.66;5072476;28;20024;-75
2022/08/21 02:00:53;;;;;;;20.92;8.10;;;;;;;13.49;89.64;101510.78;5074104;28;20051;-75
2022/08/21 02:03:18;;;;;;;18.55;9.00;;;;;;;13.45;90.07;101518.25;5072898;28;20056;-75
2022/08/21 02:05:43;;;;;;;21.08;8.95;;;;;;;13.44;89.95;101515.66;5072900;28;20127;-75
2022/08/21 02:08:09;;;;;;;21.20;8.40;;;;;;;13.37;90.07;101509.88;5072925;28;20400;-75
2022/08/21 02:10:34;;;;;;;19.60;9.18;;;;;;;13.37;90.63;101500.91;5073876;28;20055;-75
2022/08/21 02:13:00;;;;;;;19.90;9.38;;;;;;;13.36;90.40;101501.88;5073956;28;20484;-75
2022/08/21 02:15:27;;;;;;;19.65;8.73;;;;;;;13.29;90.55;101496.03;5072660;28;20039;-75
2022/08/21 02:17:57;;;;;;;22.50;10.05;;;;;;;13.28;90.11;101484.38;5073823;28;20104;-75
2022/08/21 02:20:27;;;;;;;23.50;9.88;;;;;;;13.26;90.79;101486.31;5073965;28;20029;-75
2022/08/21 02:22:52;;;;;;;21.40;8.70;;;;;;;13.25;90.92;101492.72;5072632;28;20050;-75
2022/08/21 02:25:20;;;;;;;19.50;9.00;;;;;;;13.23;90.03;101491.94;5072188;28;20469;-75
2022/08/21 02:27:47;;;;;;;21.27;8.77;;;;;;;13.24;90.66;101495.53;5073685;28;20047;-75
2022/08/21 02:30:25;;;;;;;23.08;10.40;;;;;;;13.23;90.92;101496.50;5072179;28;20028;-75
2022/08/21 02:32:50;;;;;;;20.02;10.02;;;;;;;13.22;90.19;101506.44;5072029;28;20579;-75
2022/08/21 02:35:18;;;;;;;19.38;8.70;;;;;;;13.20;90.21;101505.69;5073619;28;20062;-75
2022/08/21 02:37:58;;;;;;;22.67;9.88;;;;;;;13.19;90.42;101505.78;5073426;28;20025;-75
2022/08/21 02:40:30;;;;;;;21.45;9.35;;;;;;;13.15;90.32;101499.78;5073542;28;20025;-75
2022/08/21 02:42:56;;;;;;;21.45;10.25;;;;;;;13.11;90.27;101496.41;5072075;28;20159;-75
2022/08/21 02:45:21;;;;;;;22.45;9.73;;;;;;;13.08;90.70;101493.09;5071952;28;20119;-75
2022/08/21 02:47:56;;;;;;;19.77;9.98;;;;;;;13.06;90.42;101495.03;5071910;28;20036;-75
2022/08/21 02:50:26;;;;;;;19.05;9.00;;;;;;;13.04;90.24;101494.28;5073113;28;20059;-75
2022/08/21 02:52:52;;;;;;;22.10;11.02;;;;;;;13.02;90.11;101483.63;5072051;28;20073;-75
2022/08/21 02:55:20;;;;;;;22.35;11.07;;;;;;;13.06;91.22;101487.81;5071270;28;20426;-75
2022/08/21 02:57:45;;;;;;;21.42;11.73;;;;;;;13.13;91.77;101490.06;5071774;28;20500;-75
2022/08/21 03:00:13;;;;;;;21.10;11.75;;;;;;;13.14;91.63;101497.19;5072969;28;20023;-75
2022/08/21 03:02:39;;;;;;;25.27;12.00;;;;;;;13.15;91.49;101491.69;5072722;28;20091;-75
2022/08/21 03:05:06;;;;;;;22.60;11.40;;;;;;;13.19;91.48;101495.88;5072895;28;20032;-75
2022/08/21 03:07:32;;;;;;;23.77;11.50;;;;;;;13.23;91.29;101491.09;5072961;28;20074;-75
2022/08/21 03:09:57;;;;;;;21.70;10.60;;;;;;;13.24;91.11;101482.88;5071553;28;20017;-75
2022/08/21 03:12:24;;;;;;;22.25;10.98;;;;;;;13.25;91.20;101494.53;5072852;28;20112;-75
2022/08/21 03:14:49;;;;;;;20.35;11.25;;;;;;;13.25;90.96;101486.44;5072656;28;20017;-75
2022/08/21 03:17:14;;;;;;;22.13;10.77;;;;;;;13.26;90.81;101491.72;5071191;28;20024;-75
2022/08/21 03:19:40;;;;;;;20.75;10.95;;;;;;;13.25;90.80;101481.91;5071284;28;20055;-75
2022/08/21 03:22:05;;;;;;;21.08;10.85;;;;;;;13.24;90.66;101482.88;5071513;28;20122;-75
2022/08/21 03:24:30;;;;;;;22.27;11.18;;;;;;;13.23;90.61;101483.00;5071372;28;20396;-75
2022/08/21 03:26:56;;;;;;;22.50;10.60;;;;;;;13.22;90.92;101484.84;5071173;28;20058;-75
2022/08/21 03:29:22;;;;;;;23.15;10.50;;;;;;;13.20;91.20;101483.22;5071131;28;20384;-75
2022/08/21 03:31:47;;;;;;;23.75;11.25;;;;;;;13.20;90.88;101486.78;5072012;28;20031;-75
2022/08/21 03:34:12;;;;;;;25.40;11.15;;;;;;;13.20;90.77;101494.03;5072454;28;20451;-75
2022/08/21 03:36:37;;;;;;;21.83;10.35;;;;;;;13.19;91.24;101484.19;5071520;28;20116;-75
2022/08/21 03:39:03;;;;;;;22.33;10.68;;;;;;;13.17;90.97;101478.91;5071158;28;20032;-75
2022/08/21 03:41:28;;;;;;;20.73;10.60;;;;;;;13.14;90.92;101476.44;5072317;28;20479;-75
2022/08/21 03:43:54;;;;;;;24.75;10.32;;;;;;;13.17;91.13;101478.06;5070948;28;20036;-75
2022/08/21 03:46:19;;;;;;;22.30;10.95;;;;;;;13.18;91.33;101467.16;5072225;28;20473;-75
2022/08/21 03:48:44;;;;;;;22.38;10.55;;;;;;;13.20;91.23;101473.28;5072163;28;20468;-75
2022/08/21 03:51:10;;;;;;;23.38;11.15;;;;;;;13.19;90.74;101474.28;5072074;28;20023;-75
2022/08/21 03:53:36;;;;;;;22.27;10.35;;;;;;;13.17;91.30;101470.81;5072355;28;20302;-75
2022/08/21 03:56:02;;;;;;;20.85;9.90;;;;;;;13.14;91.15;101468.34;5070855;28;20024;-75
2022/08/21 03:58:28;;;;;;;21.08;10.57;;;;;;;13.16;91.75;101474.50;5070763;28;20021;-75
2022/08/21 04:00:56;;;;;;;24.15;11.25;;;;;;;13.20;91.58;101469.75;5071950;28;20024;-75
2022/08/21 04:03:22;;;;;;;20.75;10.32;;;;;;;13.19;91.19;101468.88;5071803;28;20515;-75
2022/08/21 04:05:47;;;;;;;21.20;10.13;;;;;;;13.23;91.34;101469.50;5070856;28;20407;-75
2022/08/21 04:08:17;;;;;;;21.83;10.02;;;;;;;13.23;91.25;101470.34;5072197;28;20107;-75
2022/08/21 04:10:44;;;;;;;22.70;10.43;;;;;;;13.22;91.06;101479.44;5070620;28;20024;-75
2022/08/21 04:13:10;;;;;;;24.92;10.95;;;;;;;13.23;91.43;101478.44;5071933;28;20027;-75
2022/08/21 04:15:35;;;;;;;21.70;9.80;;;;;;;13.23;91.15;101478.44;5070559;28;20048;-75
2022/08/21 04:18:00;;;;;;;25.95;9.98;;;;;;;13.23;91.29;101478.44;5071891;28;20086;-75
2022/08/21 04:20:26;;;;;;;22.38;10.25;;;;;;;13.22;91.10;101484.84;5070621;28;20476;-75
2022/08/21 04:22:52;;;;;;;22.52;10.02;;;;;;;13.21;90.98;101480.41;5071998;28;20032;-75
2022/08/21 04:25:20;;;;;;;22.98;9.80;;;;;;;13.19;91.17;101482.38;5070392;28;20469;-75
2022/08/21 04:27:46;;;;;;;22.35;9.85;;;;;;;13.18;90.98;101488.75;5071784;28;20024;-75
2022/08/21 04:30:13;;;;;;;20.88;9.23;;;;;;;13.15;90.85;101488.97;5070193;28;20040;-75
2022/08/21 04:32:41;;;;;;;24.40;10.38;;;;;;;13.14;90.80;101481.84;5067714;28;20040;-75
2022/08/21 04:35:09;;;;;;;23.30;9.90;;;;;;;13.13;91.11;101493.59;5051615;28;20017;-75
2022/08/21 04:37:35;;;;;;;23.05;9.00;;;;;;;13.13;90.73;101496.31;5065569;28;20028;-75
2022/08/21 04:40:01;;;;;;;22.38;9.63;;;;;;;13.11;90.65;101498.28;5051409;28;20496;-75
2022/08/21 04:42:27;;;;;;;23.40;10.10;;;;;;;13.09;91.25;101497.53;5051425;28;20029;-75
2022/08/21 04:44:53;;;;;;;23.38;9.73;;;;;;;13.08;91.15;101498.50;5051434;28;20031;-75
2022/08/21 04:47:18;;;;;;;21.13;9.73;;;;;;;13.06;91.12;101505.81;5050321;28;20032;-75
2022/08/21 04:49:45;;;;;;;23.70;10.10;;;;;;;13.05;91.25;101506.81;5051562;28;20037;-75
2022/08/21 04:52:12;;;;;;;20.35;9.38;;;;;;;13.06;90.87;101498.63;5051642;28;20036;-75
2022/08/21 04:54:38;;;;;;;23.23;10.63;;;;;;;13.04;91.07;101502.41;5051584;28;20025;-75
2022/08/21 04:57:08;;;;;;;21.55;9.10;;;;;;;13.02;91.58;101504.34;5051476;28;20032;-75
2022/08/21 04:59:42;;;;;;;23.10;9.30;;;;;;;13.03;91.66;101500.66;5051421;28;20047;-75
2022/08/21 05:02:09;;;;;;;21.83;9.20;;;;;;;13.02;91.59;101499.81;5066894;28;20074;-75
2022/08/21 05:04:50;;;;;;;20.30;8.95;;;;;;;13.02;91.75;101504.34;5071459;28;20505;-75
2022/08/21 05:07:20;;;;;;;20.45;9.90;;;;;;;13.01;91.58;101503.47;5070345;28;20028;-75
2022/08/21 05:09:45;;;;;;;19.80;8.65;;;;;;;13.02;91.58;101501.66;5071355;28;20131;-75
2022/08/21 05:12:11;;;;;;;21.25;9.20;;;;;;;13.03;91.97;101506.06;5071417;28;20055;-75
2022/08/21 05:14:36;;;;;;;20.20;9.07;;;;;;;13.03;91.82;101511.44;5071263;28;20617;-75
2022/08/21 05:17:02;;;;;;;22.67;9.60;;;;;;;13.05;92.13;101507.69;5071357;28;20104;-75
2022/08/21 05:19:27;;;;;;;20.27;9.00;;;;;;;13.08;92.15;101514.69;5075024;28;20111;-75
2022/08/21 05:21:53;;;;;;;20.23;9.23;;;;;;;13.12;92.05;101508.09;5073680;28;20472;-75
2022/08/21 05:24:18;;;;;;;24.48;9.48;;;;;;;13.16;92.24;101516.81;5074958;28;20383;-75
2022/08/21 05:26:44;;;;;;;22.92;9.32;;;;;;;13.18;92.30;101521.13;5074777;28;20055;-75
2022/08/21 05:29:10;;;;;;;22.85;9.77;;;;;;;13.22;92.20;101517.25;5074889;28;20055;-75
2022/08/21 05:31:36;;;;;;;22.63;9.00;;;;;;;13.25;92.07;101522.41;5074634;28;20059;-75
2022/08/21 05:34:02;;;;;;;22.20;9.02;;;;;;;13.26;92.15;101513.31;5074625;28;20457;-75
2022/08/21 05:36:29;;;;;;;21.73;9.45;;;;;;;13.31;92.19;101517.50;5073520;28;20135;-75
2022/08/21 05:38:54;;;;;;;23.63;9.13;;;;;;;13.34;92.50;101517.28;5074621;28;20099;-75
2022/08/21 05:41:20;;;;;;;20.98;8.50;;;;;;;13.35;92.24;101517.19;5073275;28;20125;-75
2022/08/21 05:43:45;;;;;;;21.58;8.77;;;;;;;13.40;92.34;101522.28;5074537;28;20037;-75
2022/08/21 05:46:11;;;;;;;22.15;8.95;;;;;;;13.43;92.48;101525.59;5074546;28;20060;-75
2022/08/21 05:48:36;;;;;;;21.25;8.52;;;;;;;13.49;92.67;101527.00;5074426;28;20472;-75
2022/08/21 05:51:07;;;;;;;23.23;8.75;;;;;;;13.57;92.23;101526.41;5074341;28;20063;-75
2022/08/21 05:53:33;;;;;;;19.38;8.00;;;;;;;13.59;92.05;101525.31;5072946;28;20022;-75
2022/08/21 05:55:58;;;;;;;25.20;9.63;;;;;;;13.64;92.20;101523.13;5074389;28;20020;-75
2022/08/21 05:58:24;;;;;;;19.55;8.60;;;;;;;13.68;92.26;101523.75;5074289;28;20120;-75
2022/08/21 06:00:50;;;;;;;19.85;7.28;;;;;;;13.72;92.34;101514.44;5072843;28;20074;-75
2022/08/21 06:03:19;;;;;;;21.23;9.05;;;;;;;13.79;92.44;101520.22;5069635;28;20051;-75
2022/08/21 06:05:45;;;;;;;22.13;8.65;;;;;;;13.84;92.11;101518.06;5052901;28;20473;-75
2022/08/21 06:08:11;;;;;;;19.40;7.68;;;;;;;13.89;91.87;101529.34;5054082;28;20075;-75
2022/08/21 06:10:36;;;;;;;22.50;8.70;;;;;;;13.93;92.03;101528.16;5054021;28;20036;-75
2022/08/21 06:13:02;;;;;;;20.70;8.02;;;;;;;14.01;92.60;101524.84;5052739;28;20025;-75
2022/08/21 06:15:27;;;;;;;28.75;8.00;;;;;;;14.07;92.25;101534.31;5053953;28;20025;-75
2022/08/21 06:17:53;;;;;;;21.10;7.78;;;;;;;14.11;92.01;101530.41;5053795;28;20457;-75
2022/08/21 06:20:19;;;;;;;19.52;8.10;;;;;;;14.18;92.01;101528.97;5053933;28;20029;-75
2022/08/21 06:22:44;;;;;;;20.13;8.10;;;;;;;14.25;91.83;101526.66;5053901;28;20029;-75
2022/08/21 06:25:10;;;;;;;20.17;8.00;;;;;;;14.30;91.62;101530.69;5052540;28;20530;-75
2022/08/21 06:27:35;;;;;;;20.23;7.82;;;;;;;14.39;91.85;101521.00;5072333;28;20559;-75
2022/08/21 06:30:00;;;;;;;20.05;7.50;;;;;;;14.46;91.70;101524.09;5071306;28;20033;-75
2022/08/21 06:32:26;;;;;;;24.23;7.65;;;;;;;14.51;90.84;101516.50;5073320;28;20053;-75
2022/08/21 06:34:51;;;;;;;21.30;7.60;;;;;;;14.59;91.77;101523.97;5073731;28;20032;-75
2022/08/21 06:37:16;;;;;;;20.65;7.68;;;;;;;14.64;91.55;101522.66;5073509;28;20020;-75
2022/08/21 06:39:41;;;;;;;20.98;8.07;;;;;;;14.73;91.72;101521.06;5073577;28;20025;-75
2022/08/21 06:42:13;;;;;;;19.02;7.13;;;;;;;14.80;91.61;101529.53;5073449;28;20032;-75
2022/08/21 06:44:38;;;;;;;23.00;7.82;;;;;;;14.90;91.51;101533.22;5073334;28;20028;-75
2022/08/21 06:47:04;;;;;;;20.33;6.95;;;;;;;14.98;91.78;101530.78;5073321;28;20028;-75
2022/08/21 06:49:29;;;;;;;18.77;6.80;;;;;;;15.06;91.31;101527.44;5071987;28;20021;-75
2022/08/21 06:51:54;;;;;;;19.52;7.07;;;;;;;15.13;91.05;101527.81;5071859;28;20024;-75
2022/08/21 06:54:19;;;;;;;21.33;7.40;;;;;;;15.23;92.00;101525.19;5072039;28;20122;-75
2022/08/21 06:56:45;;;;;;;17.50;6.45;;;;;;;15.31;91.31;101522.72;5071815;28;20038;-75
2022/08/21 06:59:10;;;;;;;20.48;7.18;;;;;;;15.40;91.73;101531.91;5072152;28;20059;-75
2022/08/21 07:01:36;;;;;;;20.52;7.10;;;;;;;15.49;91.36;101528.44;5072887;28;20052;-75
2022/08/21 07:04:01;;;;;;;17.38;6.90;;;;;;;15.56;91.60;101521.53;5073031;28;20085;-75
2022/08/21 07:06:27;;;;;;;17.25;7.25;;;;;;;15.63;91.63;101522.72;5071589;28;20539;-75
2022/08/21 07:08:52;;;;;;;23.67;7.28;;;;;;;15.70;90.96;101521.22;5072908;28;20025;-75
2022/08/21 07:11:20;;;;;;;23.60;7.45;;;;;;;15.80;91.36;101521.34;5071636;28;20024;-75
2022/08/21 07:13:45;;;;;;;21.42;6.80;;;;;;;15.88;91.68;101517.97;5071633;28;20028;-75
2022/08/21 07:16:10;;;;;;;17.58;6.00;;;;;;;15.97;90.72;101522.59;5072673;28;20396;-75
2022/08/21 07:18:36;;;;;;;19.83;6.40;;;;;;;16.05;91.01;101525.53;5072675;28;20119;-75
2022/08/21 07:21:04;;;;;;;19.73;6.65;;;;;;;16.15;91.75;101519.28;5071207;28;20025;-75
2022/08/21 07:23:37;;;;;;;22.45;7.10;;;;;;;16.23;90.90;101522.22;5072627;28;20024;-75
2022/08/21 07:26:03;;;;;;;20.98;6.88;;;;;;;16.28;90.54;101519.94;5072625;28;20119;-75
2022/08/21 07:28:29;;;;;;;20.13;6.88;;;;;;;16.34;90.93;101521.28;5071177;28;20107;-75
2022/08/21 07:30:57;;;;;;;20.52;6.97;;;;;;;16.39;90.59;101522.59;5072377;28;20380;-75
2022/08/21 07:33:24;;;;;;;19.55;6.22;;;;;;;16.43;90.86;101515.91;5070969;28;20056;-75
2022/08/21 07:35:49;;;;;;;25.80;7.03;;;;;;;16.48;90.37;101520.06;5071162;28;20029;-75
2022/08/21 07:38:15;;;;;;;21.25;6.25;;;;;;;16.55;90.47;101521.25;5071533;28;20035;-75
2022/08/21 07:40:40;;;;;;;23.80;6.78;;;;;;;16.61;90.37;101520.72;5072225;28;20101;-75
2022/08/21 07:43:06;;;;;;;24.42;6.63;;;;;;;16.66;90.22;101523.91;5071024;28;20495;-75
2022/08/21 07:45:32;;;;;;;19.05;6.15;;;;;;;16.73;89.93;101525.03;5070969;28;20093;-75
2022/08/21 07:47:57;;;;;;;20.77;6.65;;;;;;;16.79;89.43;101518.22;5070903;28;20020;-75
2022/08/21 07:50:23;;;;;;;19.67;5.63;;;;;;;16.86;89.00;101522.09;5072115;28;20029;-75
2022/08/21 07:52:48;;;;;;;25.42;7.03;;;;;;;16.92;89.72;101523.44;5072563;28;20024;-75
2022/08/21 07:55:18;;;;;;;19.10;6.22;;;;;;;16.95;88.08;101517.72;5070915;28;20033;-75
2022/08/21 07:57:44;;;;;;;23.30;5.85;;;;;;;17.00;88.25;101525.47;5070828;28;20498;-75
2022/08/21 08:00:13;;;;;;;16.33;5.18;;;;;;;17.04;88.64;101516.91;5070705;28;20063;-75
2022/08/21 08:02:39;;;;;;;17.80;5.35;;;;;;;17.12;88.12;101518.94;5071990;28;20117;-75
2022/08/21 08:05:09;;;;;;;17.50;5.28;;;;;;;17.18;87.36;101526.53;5070715;28;20067;-75
2022/08/21 08:07:34;;;;;;;20.38;5.85;;;;;;;17.22;87.28;101514.38;5072107;28;20078;-75
2022/08/21 08:10:00;;;;;;;21.20;5.38;;;;;;;17.30;87.22;101524.53;5070632;28;20383;-75
2022/08/21 08:12:29;;;;;;;18.67;5.53;;;;;;;17.36;87.17;101509.53;5070672;28;20028;-75
2022/08/21 08:14:58;;;;;;;18.35;5.00;;;;;;;17.42;87.64;101517.13;5071964;28;20104;-75
2022/08/21 08:17:24;;;;;;;18.15;4.78;;;;;;;17.48;86.68;101519.25;5070592;28;20034;-75
2022/08/21 08:19:50;;;;;;;18.40;4.65;;;;;;;17.55;86.34;101525.00;5071928;28;20455;-75
2022/08/21 08:22:19;;;;;;;17.63;5.53;;;;;;;17.60;86.07;101518.16;5071946;28;20034;-75
2022/08/21 08:24:45;;;;;;;15.57;4.40;;;;;;;17.64;85.82;101514.16;5072076;28;20048;-76
2022/08/21 08:27:10;;;;;;;16.08;5.22;;;;;;;17.69;85.30;101513.72;5070476;28;20060;-76
2022/08/21 08:29:35;;;;;;;18.02;4.90;;;;;;;17.74;85.56;101514.13;5071694;28;20111;-76
2022/08/21 08:32:01;;;;;;;22.08;5.20;;;;;;;17.80;86.04;101513.59;5070124;28;20098;-76
2022/08/21 08:34:26;;;;;;;18.15;4.75;;;;;;;17.88;84.92;101526.44;5070585;28;20104;-76
2022/08/21 08:36:52;;;;;;;16.08;4.47;;;;;;;17.92;84.61;101522.47;5070540;28;20059;-76
2022/08/21 08:39:17;;;;;;;18.77;4.40;;;;;;;17.95;83.97;101515.88;5071820;28;20043;-76
2022/08/21 08:41:47;;;;;;;18.02;4.60;;;;;;;18.01;84.35;101509.88;5070367;28;20016;-76
2022/08/21 08:44:12;;;;;;;15.15;4.28;;;;;;;18.09;85.24;101511.84;5070468;28;20159;-76
2022/08/21 08:46:43;;;;;;;21.60;5.72;;;;;;;18.15;83.98;101497.66;5070182;28;20111;-76
2022/08/21 08:49:20;;;;;;;13.35;3.78;;;;;;;18.25;85.12;101500.38;5071721;28;20039;-76
2022/08/21 08:51:54;;;;;;;14.82;4.30;;;;;;;18.32;85.05;101502.34;5070370;28;20400;-76
2022/08/21 08:54:48;;;;;;;17.45;4.43;;;;;;;18.40;84.02;101495.31;5075445;28;20031;-76
2022/08/21 08:57:17;;;;;;;14.68;4.55;;;;;;;18.46;81.60;101487.44;5074243;28;20024;-76
2022/08/21 08:59:46;;;;;;;17.13;4.25;;;;;;;18.51;80.75;101485.09;5074093;28;20033;-76
2022/08/21 09:02:13;;;;;;;14.55;4.05;;;;;;;18.57;81.71;101477.38;5074014;28;20029;-76
2022/08/21 09:04:39;;;;;;;15.18;4.28;;;;;;;18.60;81.21;101474.34;5075273;28;20063;-76
2022/08/21 09:07:11;;;;;;;15.43;3.78;;;;;;;18.62;80.84;101475.03;5074084;28;20193;-76
2022/08/21 09:10:12;;;;;;;13.05;3.53;;;;;;;18.64;80.71;101478.47;5073824;28;20029;-76
2022/08/21 09:13:07;;;;;;;18.52;4.43;;;;;;;18.61;79.84;101474.19;5075121;28;20071;-76
2022/08/21 09:15:52;;;;;;;17.55;3.83;;;;;;;18.63;78.70;101482.19;5047548;28;20032;-76
2022/08/21 09:18:36;;;;;;;11.52;3.45;;;;;;;18.70;79.23;101475.16;5073611;28;20024;-76
2022/08/21 09:21:22;;;;;;;11.00;3.38;;;;;;;18.75;78.19;101482.84;5073652;28;20511;-76
2022/08/21 09:24:05;;;;;;;11.05;3.35;;;;;;;18.84;78.67;101480.09;5074966;28;20094;-76
2022/08/21 09:26:41;;;;;;;14.23;3.47;;;;;;;18.93;77.21;101480.22;5073573;28;20062;-76
2022/08/21 09:29:09;;;;;;;15.57;3.70;;;;;;;19.00;75.04;101484.03;5073625;28;20029;-76
2022/08/21 09:31:39;;;;;;;12.45;3.50;;;;;;;19.07;73.98;101485.16;5074607;28;20020;-76
2022/08/21 09:34:08;;;;;;;18.65;4.20;;;;;;;19.18;75.74;101487.66;5073354;28;20049;-76
2022/08/21 09:36:45;;;;;;;9.88;3.60;;;;;;;19.26;75.11;101478.72;5074713;28;20468;-76
2022/08/21 09:39:13;;;;;;;13.77;4.00;;;;;;;19.33;75.12;101478.97;5073515;28;20404;-76
2022/08/21 09:41:39;;;;;;;13.80;4.20;;;;;;;19.38;75.14;101482.06;5074917;28;20032;-76
2022/08/21 09:44:07;;;;;;;14.00;5.13;;;;;;;19.44;74.42;101491.50;5074616;28;20090;-76
2022/08/21 09:46:33;;;;;;;14.88;4.93;;;;;;;19.48;74.07;101482.84;5073201;28;20036;-76
2022/08/21 09:49:02;;;;;;;17.20;4.93;;;;;;;19.52;72.09;101494.31;5074528;28;20032;-76
2022/08/21 09:51:34;;;;;;;14.18;4.70;;;;;;;19.52;70.36;101486.97;5073003;28;20016;-76
2022/08/21 09:54:06;;;;;;;18.02;4.90;;;;;;;19.60;72.02;101474.44;5073202;28;20024;-76
2022/08/21 09:59:30;;;;;;;12.90;4.82;;;;;;;19.69;71.86;101477.09;5074599;28;20125;-76
2022/08/21 10:01:56;;;;;;;15.30;5.13;;;;;;;19.73;71.24;101474.91;5074069;28;20170;-76
2022/08/21 10:04:33;;;;;;;19.08;4.82;;;;;;;19.76;69.29;101469.13;5072730;28;20107;-76
2022/08/21 10:07:09;;;;;;;12.85;4.35;;;;;;;19.82;68.98;101473.97;5074275;28;20024;-76
2022/08/21 10:09:35;;;;;;;12.30;4.43;;;;;;;19.90;69.29;101476.78;5072874;28;20553;-76
2022/08/21 10:12:03;;;;;;;16.30;4.38;;;;;;;19.96;69.15;101463.53;5072902;28;20024;-76
2022/08/21 10:14:44;;;;;;;10.52;4.15;;;;;;;19.96;68.38;101474.44;5072705;28;20028;-76
2022/08/21 10:17:31;;;;;;;15.35;4.60;;;;;;;19.94;67.65;101479.19;5074036;28;20021;-76
2022/08/21 10:19:57;;;;;;;13.18;4.78;;;;;;;19.96;68.50;101479.91;5072610;28;20024;-76
2022/08/21 10:22:40;;;;;;;14.73;4.72;;;;;;;19.98;69.05;101480.59;5073912;28;20020;-76
2022/08/21 10:25:16;;;;;;;18.30;5.55;;;;;;;19.98;69.26;101477.84;5073726;28;20097;-76
2022/08/21 10:28:03;;;;;;;13.38;5.28;;;;;;;20.03;68.32;101473.63;5069189;28;20029;-76
2022/08/21 10:30:46;;;;;;;10.35;4.55;;;;;;;20.06;66.91;101475.19;5055294;28;20032;-76
2022/08/21 10:33:17;;;;;;;16.25;4.63;;;;;;;20.08;65.59;101468.53;5072054;28;20051;-76
2022/08/21 10:36:14;;;;;;;14.15;4.72;;;;;;;20.13;65.81;101470.78;5073972;28;20065;-76
2022/08/21 10:38:55;;;;;;;13.18;4.70;;;;;;;20.16;65.72;101478.69;5056633;28;20025;-76
2022/08/21 10:41:50;;;;;;;13.55;5.38;;;;;;;20.19;66.75;101469.28;5072214;28;20031;-76
2022/08/21 10:44:52;;;;;;;15.77;5.32;;;;;;;20.26;69.19;101470.38;5073449;28;20090;-76
2022/08/21 10:47:44;;;;;;;16.85;5.28;;;;;;;20.30;67.69;101476.38;5071893;28;20063;-76
2022/08/21 10:50:29;;;;;;;15.05;5.78;;;;;;;20.34;66.27;101469.59;5072045;28;20063;-76
2022/08/21 10:53:14;;;;;;;18.13;6.30;;;;;;;20.35;66.26;101474.88;5072126;28;20032;-76
2022/08/21 10:55:54;;;;;;;17.08;5.97;;;;;;;20.35;64.92;101471.28;5073164;28;20056;-76
2022/08/21 10:58:31;;;;;;;17.05;5.45;;;;;;;20.36;65.68;101471.09;5071951;28;20035;-76
2022/08/21 11:01:19;;;;;;;13.82;5.78;;;;;;;20.40;65.61;101458.00;5071893;28;20021;-76
2022/08/21 11:03:51;;;;;;;20.90;6.28;;;;;;;20.43;64.84;101466.72;5071699;28;20051;-76
2022/08/21 11:06:32;;;;;;;15.23;5.78;;;;;;;20.45;66.06;101461.09;5071725;28;20120;-76
2022/08/21 11:09:06;;;;;;;19.33;6.18;;;;;;;20.47;63.97;101461.81;5073050;28;20533;-76
2022/08/21 11:11:41;;;;;;;16.60;6.00;;;;;;;20.49;65.07;101459.75;5072921;28;20021;-76
2022/08/21 11:14:17;;;;;;;16.38;6.80;;;;;;;20.54;66.13;101464.72;5071554;28;20030;-76
2022/08/21 11:16:48;;;;;;;16.00;6.03;;;;;;;20.63;64.20;101463.75;5067479;28;20481;-76
2022/08/21 11:19:37;;;;;;;15.50;6.00;;;;;;;20.69;63.49;101465.84;5052805;28;20025;-76
2022/08/21 11:22:14;;;;;;;13.70;5.55;;;;;;;20.78;63.70;101464.84;5045240;28;20090;-76
2022/08/21 11:25:02;;;;;;;16.73;5.55;;;;;;;20.87;64.37;101462.16;5051429;28;20029;-76
2022/08/21 11:27:44;;;;;;;17.65;5.63;;;;;;;20.91;63.54;101460.81;5052653;28;20029;-76